createdAt,value
2023-02-12T00:00:21.667Z,101292.44
2023-02-12T00:04:26.684Z,101286.09
2023-02-12T00:08:30.191Z,101277.06
2023-02-12T00:12:33.879Z,101273.91
2023-02-12T00:16:37.624Z,101282.25
2023-02-12T00:20:42.605Z,101280.25
2023-02-12T00:24:46.111Z,101271.00
2023-02-12T00:28:49.928Z,101275.13
2023-02-12T00:32:56.922Z,101274.19
2023-02-12T00:37:02.120Z,101271.16
2023-02-12T00:41:09.646Z,101278.69
2023-02-12T00:45:22.700Z,101283.00
2023-02-12T00:49:26.741Z,101287.75
2023-02-12T00:53:32.868Z,101292.22
2023-02-12T00:57:36.654Z,101298.59
2023-02-12T01:01:40.472Z,101299.41
2023-02-12T01:05:46.305Z,101299.78
2023-02-12T01:09:52.669Z,101299.09
2023-02-12T01:13:58.008Z,101288.75
2023-02-12T01:18:02.553Z,101296.97
2023-02-12T01:22:09.641Z,101295.59
2023-02-12T01:26:18.513Z,101302.47
2023-02-12T01:30:24.417Z,101296.69
2023-02-12T01:34:29.852Z,101297.66
2023-02-12T01:38:39.886Z,101296.34
2023-02-12T01:42:51.108Z,101300.28
2023-02-12T01:47:06.037Z,101297.47
2023-02-12T01:51:20.443Z,101291.94
2023-02-12T01:55:28.362Z,101293.28
2023-02-12T01:59:37.862Z,101263.84
2023-02-12T02:03:46.053Z,101287.59
2023-02-12T02:07:53.147Z,101284.47
2023-02-12T02:12:15.556Z,101285.06
2023-02-12T02:16:24.630Z,101278.41
2023-02-12T02:20:50.957Z,101261.88
2023-02-12T02:25:25.790Z,101270.75
2023-02-12T02:29:49.692Z,101232.59
2023-02-12T02:33:58.369Z,101264.13
2023-02-12T02:38:13.359Z,101259.88
2023-02-12T02:42:19.412Z,101267.78
2023-02-12T02:46:28.217Z,101250.94
2023-02-12T02:50:36.248Z,101262.34
2023-02-12T02:54:51.379Z,101264.22
2023-02-12T02:59:06.380Z,101250.25
2023-02-12T03:03:17.471Z,101250.25
2023-02-12T03:07:27.505Z,101250.84
2023-02-12T03:11:33.479Z,101247.75
2023-02-12T03:15:42.935Z,101240.19
2023-02-12T03:19:52.320Z,101243.56
2023-02-12T03:24:03.973Z,101245.28
2023-02-12T03:28:13.689Z,101239.47
2023-02-12T03:32:26.022Z,101234.72
2023-02-12T03:36:36.293Z,101249.09
2023-02-12T03:40:43.772Z,101253.28
2023-02-12T03:44:54.441Z,101250.84
2023-02-12T03:49:03.151Z,101251.25
2023-02-12T03:53:17.845Z,101257.00
2023-02-12T03:57:31.773Z,101212.94
2023-02-12T04:01:39.402Z,101256.25
2023-02-12T04:05:46.778Z,101238.28
2023-02-12T04:09:53.613Z,101250.84
2023-02-12T04:14:10.788Z,101233.78
2023-02-12T04:18:18.057Z,101246.13
2023-02-12T04:22:31.576Z,101242.41
2023-02-12T04:26:39.415Z,101249.41
2023-02-12T04:30:47.894Z,101260.41
2023-02-12T04:34:55.926Z,101252.88
2023-02-12T04:39:05.728Z,101268.09
2023-02-12T04:43:12.352Z,101271.13
2023-02-12T04:47:19.402Z,101266.44
2023-02-12T04:51:23.055Z,101264.00
2023-02-12T04:55:29.842Z,101257.25
2023-02-12T04:59:34.666Z,101253.66
2023-02-12T05:03:43.002Z,101240.28
2023-02-12T05:07:47.005Z,101247.31
2023-02-12T05:11:59.993Z,101250.94
2023-02-12T05:16:18.371Z,101243.47
2023-02-12T05:20:26.890Z,101245.88
2023-02-12T05:24:31.421Z,101256.94
2023-02-12T05:28:41.916Z,101255.25
2023-02-12T05:32:45.428Z,101258.06
2023-02-12T05:36:53.789Z,101257.16
2023-02-12T05:41:03.363Z,101266.88
2023-02-12T05:45:08.646Z,101262.56
2023-02-12T05:49:12.814Z,101271.13
2023-02-12T05:53:18.311Z,101272.19
2023-02-12T05:57:23.506Z,101273.38
2023-02-12T06:01:29.411Z,101280.00
2023-02-12T06:05:35.134Z,101269.00
2023-02-12T06:09:41.027Z,101275.03
2023-02-12T06:13:44.724Z,101279.03
2023-02-12T06:17:51.499Z,101280.31
2023-02-12T06:21:55.226Z,101274.28
2023-02-12T06:26:03.677Z,101281.44
2023-02-12T06:30:08.619Z,101274.50
2023-02-12T06:34:16.712Z,101288.56
2023-02-12T06:38:20.976Z,101283.97
2023-02-12T06:42:25.884Z,101284.25
2023-02-12T06:46:30.029Z,101286.72
2023-02-12T06:50:33.853Z,101289.75
2023-02-12T06:54:38.340Z,101288.00
2023-02-12T06:58:46.123Z,101296.53
2023-02-12T07:02:57.270Z,101301.41
2023-02-12T07:07:01.118Z,101284.53
2023-02-12T07:11:05.062Z,101301.81
2023-02-12T07:15:11.328Z,101303.03
2023-02-12T07:19:17.624Z,101304.88
2023-02-12T07:23:24.800Z,101292.34
2023-02-12T07:27:31.359Z,101301.97
2023-02-12T07:31:36.478Z,101291.34
2023-02-12T07:35:40.647Z,101298.13
2023-02-12T07:39:45.202Z,101293.50
2023-02-12T07:43:50.149Z,101297.63
2023-02-12T07:47:55.084Z,101290.97
2023-02-12T07:51:58.723Z,101303.75
2023-02-12T07:56:16.476Z,101300.75
2023-02-12T08:00:21.131Z,101289.16
2023-02-12T08:04:27.336Z,101306.56
2023-02-12T08:08:30.889Z,101300.53
2023-02-12T08:12:34.548Z,101297.66
2023-02-12T08:16:45.508Z,101305.53
2023-02-12T08:20:50.778Z,101305.97
2023-02-12T08:24:54.843Z,101303.50
2023-02-12T08:28:59.878Z,101307.25
2023-02-12T08:33:06.076Z,101297.38
2023-02-12T08:37:11.766Z,101288.34
2023-02-12T08:41:21.626Z,101298.53
2023-02-12T08:45:27.905Z,101293.06
2023-02-12T08:49:32.270Z,101290.22
2023-02-12T08:53:38.366Z,101293.19
2023-02-12T08:57:44.249Z,101302.69
2023-02-12T09:01:51.470Z,101291.03
2023-02-12T09:06:02.857Z,101282.81
2023-02-12T09:10:09.088Z,101284.03
2023-02-12T09:14:30.023Z,101275.09
2023-02-12T09:18:37.430Z,101274.56
2023-02-12T09:22:41.330Z,101282.06
2023-02-12T09:26:46.206Z,101285.34
2023-02-12T09:30:50.162Z,101289.06
2023-02-12T09:35:05.685Z,101289.66
2023-02-12T09:39:09.803Z,101298.66
2023-02-12T09:43:25.927Z,101296.34
2023-02-12T09:47:36.056Z,101293.75
2023-02-12T09:51:39.888Z,101291.28
2023-02-12T09:55:48.535Z,101290.50
2023-02-12T09:59:58.009Z,101299.00
2023-02-12T10:04:02.723Z,101299.13
2023-02-12T10:08:32.627Z,101301.09
2023-02-12T10:12:42.714Z,101300.16
2023-02-12T10:16:54.854Z,101286.69
2023-02-12T10:21:09.759Z,101285.78
2023-02-12T10:25:23.701Z,101299.94
2023-02-12T10:29:34.015Z,101299.28
2023-02-12T10:33:49.870Z,101304.63
2023-02-12T10:38:02.169Z,101301.88
2023-02-12T10:42:17.582Z,101297.97
2023-02-12T10:46:27.763Z,101309.34
2023-02-12T10:50:54.802Z,101306.00
2023-02-12T10:55:00.729Z,101292.00
2023-02-12T10:59:07.145Z,101285.34
2023-02-12T11:03:23.719Z,101278.44
2023-02-12T11:07:50.211Z,101285.72
2023-02-12T11:11:56.498Z,101284.38
2023-02-12T11:16:02.617Z,101285.72
2023-02-12T11:20:26.375Z,101271.41
2023-02-12T11:24:37.792Z,101278.84
2023-02-12T11:28:55.154Z,101264.00
2023-02-12T11:33:18.843Z,101268.31
2023-02-12T11:37:25.476Z,101261.22
2023-02-12T11:41:36.560Z,101250.34
2023-02-12T11:45:50.498Z,101251.72
2023-02-12T11:49:59.563Z,101245.72
2023-02-12T11:54:07.194Z,101263.88
2023-02-12T11:58:19.980Z,101251.50
2023-02-12T12:02:27.872Z,101252.88
2023-02-12T12:06:39.130Z,101247.94
2023-02-12T12:10:46.572Z,101243.31
2023-02-12T12:15:23.191Z,101237.16
2023-02-12T12:19:50.835Z,101243.16
2023-02-12T12:24:00.104Z,101234.25
2023-02-12T12:28:11.286Z,101232.25
2023-02-12T12:32:22.006Z,101238.81
2023-02-12T12:37:06.812Z,101240.34
2023-02-12T12:41:20.383Z,101218.91
2023-02-12T12:45:41.300Z,101222.53
2023-02-12T12:50:01.946Z,101211.78
2023-02-12T12:54:22.753Z,101205.19
2023-02-12T12:58:38.049Z,101205.03
2023-02-12T13:03:10.857Z,101209.47
2023-02-12T13:07:24.519Z,101193.56
2023-02-12T13:11:38.024Z,101203.81
2023-02-12T13:15:47.117Z,101196.25
2023-02-12T13:20:02.515Z,101184.72
2023-02-12T13:24:21.997Z,101187.63
2023-02-12T13:28:49.591Z,101189.59
2023-02-12T13:33:05.240Z,101190.25
2023-02-12T13:37:17.036Z,101185.53
2023-02-12T13:41:23.348Z,101199.06
2023-02-12T13:45:39.970Z,101190.78
2023-02-12T13:49:49.844Z,101193.03
2023-02-12T13:54:03.867Z,101190.94
2023-02-12T13:58:45.731Z,101190.03
2023-02-12T14:02:54.750Z,101190.41
2023-02-12T14:07:03.895Z,101190.38
2023-02-12T14:11:12.471Z,101179.88
2023-02-12T14:15:42.382Z,101176.34
2023-02-12T14:19:59.335Z,101172.81
2023-02-12T14:24:53.597Z,101166.72
2023-02-12T14:29:01.041Z,101169.63
2023-02-12T14:33:30.600Z,101171.38
2023-02-12T14:37:43.443Z,101157.38
2023-02-12T14:41:58.496Z,101168.28
2023-02-12T14:46:38.725Z,101163.66
2023-02-12T14:50:50.684Z,101167.03
2023-02-12T14:54:58.022Z,101132.28
2023-02-12T14:59:07.870Z,101143.81
2023-02-12T15:03:25.877Z,101160.47
2023-02-12T15:07:33.778Z,101159.91
2023-02-12T15:11:46.935Z,101154.63
2023-02-12T15:15:54.792Z,101147.13
2023-02-12T15:20:03.078Z,101149.56
2023-02-12T15:24:08.256Z,101152.66
2023-02-12T15:28:21.353Z,101140.03
2023-02-12T15:32:26.993Z,101140.03
2023-02-12T15:36:34.012Z,101137.81
2023-02-12T15:40:37.431Z,101136.44
2023-02-12T15:44:42.692Z,101140.38
2023-02-12T15:48:50.837Z,101146.91
2023-02-12T15:52:58.380Z,101138.56
2023-02-12T15:57:05.832Z,101137.22
2023-02-12T16:01:21.183Z,101134.94
2023-02-12T16:05:25.691Z,101140.13
2023-02-12T16:09:32.667Z,101145.03
2023-02-12T16:13:37.707Z,101140.69
2023-02-12T16:17:48.369Z,101142.81
2023-02-12T16:21:54.337Z,101143.13
2023-02-12T16:26:01.933Z,101143.75
2023-02-12T16:30:08.781Z,101133.84
2023-02-12T16:34:32.944Z,101132.75
2023-02-12T16:38:46.812Z,101138.09
2023-02-12T16:43:08.014Z,101141.47
2023-02-12T16:47:27.287Z,101143.34
2023-02-12T16:51:34.106Z,101148.09
2023-02-12T16:55:38.457Z,101141.38
2023-02-12T16:59:48.228Z,101148.75
2023-02-12T17:04:04.397Z,101143.66
2023-02-12T17:08:12.830Z,101153.81
2023-02-12T17:12:19.104Z,101151.44
2023-02-12T17:16:32.247Z,101152.56
2023-02-12T17:20:44.651Z,101161.91
2023-02-12T17:24:54.858Z,101154.44
2023-02-12T17:29:05.740Z,101160.41
2023-02-12T17:33:10.079Z,101160.25
2023-02-12T17:37:26.971Z,101164.47
2023-02-12T17:42:00.850Z,101162.19
2023-02-12T17:46:10.788Z,101161.00
2023-02-12T17:50:16.514Z,101154.56
2023-02-12T17:59:03.848Z,101165.91
2023-02-12T18:03:17.028Z,101168.06
2023-02-12T18:07:25.545Z,101171.19
2023-02-12T18:11:33.401Z,101179.69
2023-02-12T18:15:48.412Z,101163.09
2023-02-12T18:19:55.985Z,101175.16
2023-02-12T18:24:00.471Z,101169.03
2023-02-12T18:28:07.679Z,101171.09
2023-02-12T18:32:16.656Z,101167.94
2023-02-12T18:36:32.511Z,101169.94
2023-02-12T18:40:36.153Z,101161.38
2023-02-12T18:44:52.780Z,101162.50
2023-02-12T18:49:01.742Z,101161.09
2023-02-12T18:53:06.383Z,101171.25
2023-02-12T18:57:13.886Z,101172.78
2023-02-12T19:01:18.908Z,101162.22
2023-02-12T19:10:09.249Z,101163.34
2023-02-12T19:14:20.111Z,101161.75
2023-02-12T19:18:30.668Z,101163.38
2023-02-12T19:22:37.018Z,101164.09
2023-02-12T19:26:44.768Z,101175.31
2023-02-12T19:30:49.045Z,101174.22
2023-02-12T19:34:52.856Z,101167.78
2023-02-12T19:38:58.870Z,101165.75
2023-02-12T19:43:02.994Z,101162.03
2023-02-12T19:47:06.858Z,101169.84
2023-02-12T19:51:20.763Z,101168.75
2023-02-12T19:55:26.116Z,101171.19
2023-02-12T19:59:34.310Z,101172.56
2023-02-12T20:03:52.629Z,101179.16
2023-02-12T20:07:56.227Z,101179.59
2023-02-12T20:12:16.667Z,101181.06
2023-02-12T20:16:22.980Z,101178.03
2023-02-12T20:20:26.870Z,101172.03
2023-02-12T20:24:41.095Z,101185.31
2023-02-12T20:28:57.509Z,101177.44
2023-02-12T20:33:14.294Z,101169.28
2023-02-12T20:37:18.808Z,101184.09
2023-02-12T20:41:41.350Z,101183.88
2023-02-12T20:46:30.686Z,101177.09
2023-02-12T20:50:45.237Z,101166.41
2023-02-12T20:55:05.548Z,101178.88
2023-02-12T20:59:17.404Z,101175.56
2023-02-12T21:03:28.766Z,101174.47
2023-02-12T21:07:35.105Z,101171.94
2023-02-12T21:16:26.183Z,101183.97
2023-02-12T21:20:41.865Z,101145.00
2023-02-12T21:24:48.765Z,101175.50
2023-02-12T21:29:05.010Z,101169.50
2023-02-12T21:33:09.374Z,101169.25
2023-02-12T21:37:20.562Z,101163.69
2023-02-12T21:41:28.684Z,101167.63
2023-02-12T21:45:41.275Z,101158.44
2023-02-12T21:49:45.617Z,101158.88
2023-02-12T21:54:05.260Z,101153.28
2023-02-12T21:58:39.182Z,101155.81
2023-02-12T22:02:55.190Z,101161.34
2023-02-12T22:07:08.631Z,101161.47
2023-02-12T22:11:26.796Z,101162.13
2023-02-12T22:15:49.650Z,101155.72
2023-02-12T22:20:22.450Z,101164.72
2023-02-12T22:24:55.910Z,101158.25
2023-02-12T22:29:18.045Z,101157.78
2023-02-12T22:33:25.470Z,101161.94
2023-02-12T22:37:36.306Z,101155.81
2023-02-12T22:42:13.775Z,101162.56
2023-02-12T22:46:26.755Z,101163.59
2023-02-12T22:50:31.952Z,101172.34
2023-02-12T22:54:44.360Z,101178.94
2023-02-12T22:58:52.242Z,101159.34
2023-02-12T23:03:00.269Z,101169.97
2023-02-12T23:07:06.990Z,101173.03
2023-02-12T23:11:12.116Z,101176.22
2023-02-12T23:15:16.011Z,101180.19
2023-02-12T23:19:25.093Z,101179.94
2023-02-12T23:23:29.600Z,101183.94
2023-02-12T23:27:35.604Z,101179.69
2023-02-12T23:31:41.939Z,101177.28
2023-02-12T23:35:51.904Z,101174.09
2023-02-12T23:39:56.368Z,101170.50
2023-02-12T23:44:02.107Z,101163.09
2023-02-12T23:48:11.698Z,101164.22
2023-02-12T23:52:22.528Z,101162.00
2023-02-12T23:56:33.711Z,101160.56
